sensor_id;sensor_type;location;lat;lon;timestamp;P1;durP1;ratioP1;P2;durP2;ratioP2
8777;SDS011;4425;50.872;4.712;2023-05-07T00:01:32;9.20;;;7.67;;
8777;SDS011;4425;50.872;4.712;2023-05-07T00:04:00;10.60;;;7.50;;
8777;SDS011;4425;50.872;4.712;2023-05-07T00:06:31;9.63;;;8.10;;
8777;SDS011;4425;50.872;4.712;2023-05-07T00:08:59;7.97;;;6.50;;
8777;SDS011;4425;50.872;4.712;2023-05-07T00:13:58;11.53;;;7.47;;
8777;SDS011;4425;50.872;4.712;2023-05-07T00:16:27;10.20;;;6.97;;
8777;SDS011;4425;50.872;4.712;2023-05-07T00:18:57;9.33;;;7.00;;
8777;SDS011;4425;50.872;4.712;2023-05-07T00:21:24;10.23;;;7.73;;
8777;SDS011;4425;50.872;4.712;2023-05-07T00:23:52;8.40;;;7.20;;
8777;SDS011;4425;50.872;4.712;2023-05-07T00:26:19;13.63;;;7.73;;
8777;SDS011;4425;50.872;4.712;2023-05-07T00:28:47;8.83;;;7.87;;
8777;SDS011;4425;50.872;4.712;2023-05-07T00:31:15;8.90;;;7.50;;
8777;SDS011;4425;50.872;4.712;2023-05-07T00:33:44;10.80;;;7.60;;
8777;SDS011;4425;50.872;4.712;2023-05-07T00:36:11;9.83;;;8.17;;
8777;SDS011;4425;50.872;4.712;2023-05-07T00:41:30;12.17;;;8.20;;
8777;SDS011;4425;50.872;4.712;2023-05-07T00:43:57;9.73;;;8.10;;
8777;SDS011;4425;50.872;4.712;2023-05-07T00:46:25;11.03;;;8.07;;
8777;SDS011;4425;50.872;4.712;2023-05-07T00:48:55;9.00;;;8.10;;
8777;SDS011;4425;50.872;4.712;2023-05-07T00:51:23;10.07;;;8.30;;
8777;SDS011;4425;50.872;4.712;2023-05-07T00:53:53;12.80;;;8.23;;
8777;SDS011;4425;50.872;4.712;2023-05-07T00:56:20;9.07;;;8.20;;
8777;SDS011;4425;50.872;4.712;2023-05-07T00:58:48;8.67;;;7.87;;
8777;SDS011;4425;50.872;4.712;2023-05-07T01:01:15;9.33;;;8.37;;
8777;SDS011;4425;50.872;4.712;2023-05-07T01:03:43;9.80;;;8.30;;
8777;SDS011;4425;50.872;4.712;2023-05-07T01:06:13;10.20;;;7.97;;
8777;SDS011;4425;50.872;4.712;2023-05-07T01:08:42;9.40;;;8.27;;
8777;SDS011;4425;50.872;4.712;2023-05-07T01:11:10;9.43;;;8.17;;
8777;SDS011;4425;50.872;4.712;2023-05-07T01:13:38;8.43;;;7.63;;
8777;SDS011;4425;50.872;4.712;2023-05-07T01:16:07;11.17;;;8.17;;
8777;SDS011;4425;50.872;4.712;2023-05-07T01:18:36;8.53;;;7.67;;
8777;SDS011;4425;50.872;4.712;2023-05-07T01:21:04;10.07;;;8.13;;
8777;SDS011;4425;50.872;4.712;2023-05-07T01:23:33;8.77;;;7.83;;
8777;SDS011;4425;50.872;4.712;2023-05-07T01:26:01;9.23;;;8.10;;
8777;SDS011;4425;50.872;4.712;2023-05-07T01:28:29;9.57;;;8.17;;
8777;SDS011;4425;50.872;4.712;2023-05-07T01:30:59;9.57;;;8.67;;
8777;SDS011;4425;50.872;4.712;2023-05-07T01:33:33;9.23;;;8.40;;
8777;SDS011;4425;50.872;4.712;2023-05-07T01:36:04;9.17;;;8.30;;
8777;SDS011;4425;50.872;4.712;2023-05-07T01:38:35;9.87;;;8.60;;
8777;SDS011;4425;50.872;4.712;2023-05-07T01:41:03;9.27;;;8.37;;
8777;SDS011;4425;50.872;4.712;2023-05-07T01:43:32;13.23;;;9.60;;
8777;SDS011;4425;50.872;4.712;2023-05-07T01:46:01;11.83;;;9.37;;
8777;SDS011;4425;50.872;4.712;2023-05-07T01:48:30;9.97;;;8.93;;
8777;SDS011;4425;50.872;4.712;2023-05-07T01:50:59;11.07;;;9.50;;
8777;SDS011;4425;50.872;4.712;2023-05-07T01:53:36;9.37;;;8.43;;
8777;SDS011;4425;50.872;4.712;2023-05-07T01:56:04;11.23;;;9.10;;
8777;SDS011;4425;50.872;4.712;2023-05-07T02:01:26;13.17;;;9.40;;
8777;SDS011;4425;50.872;4.712;2023-05-07T02:03:54;10.53;;;9.57;;
8777;SDS011;4425;50.872;4.712;2023-05-07T02:06:22;12.60;;;9.87;;
8777;SDS011;4425;50.872;4.712;2023-05-07T02:08:50;12.33;;;9.67;;
8777;SDS011;4425;50.872;4.712;2023-05-07T02:11:20;13.40;;;10.77;;
8777;SDS011;4425;50.872;4.712;2023-05-07T02:13:47;11.97;;;10.77;;
8777;SDS011;4425;50.872;4.712;2023-05-07T02:16:15;11.87;;;10.83;;
8777;SDS011;4425;50.872;4.712;2023-05-07T02:18:44;12.53;;;10.80;;
8777;SDS011;4425;50.872;4.712;2023-05-07T02:21:12;11.53;;;10.37;;
8777;SDS011;4425;50.872;4.712;2023-05-07T02:23:40;12.47;;;10.40;;
8777;SDS011;4425;50.872;4.712;2023-05-07T02:26:08;11.33;;;10.27;;
8777;SDS011;4425;50.872;4.712;2023-05-07T02:28:37;12.53;;;10.83;;
8777;SDS011;4425;50.872;4.712;2023-05-07T02:31:05;11.53;;;10.27;;
8777;SDS011;4425;50.872;4.712;2023-05-07T02:33:32;13.00;;;10.87;;
8777;SDS011;4425;50.872;4.712;2023-05-07T02:36:05;13.20;;;11.27;;
8777;SDS011;4425;50.872;4.712;2023-05-07T02:38:33;12.50;;;10.50;;
8777;SDS011;4425;50.872;4.712;2023-05-07T02:44:43;12.70;;;10.10;;
8777;SDS011;4425;50.872;4.712;2023-05-07T02:47:10;11.97;;;10.70;;
8777;SDS011;4425;50.872;4.712;2023-05-07T02:49:38;10.97;;;9.93;;
8777;SDS011;4425;50.872;4.712;2023-05-07T02:52:06;14.07;;;10.83;;
8777;SDS011;4425;50.872;4.712;2023-05-07T02:54:35;12.23;;;10.63;;
8777;SDS011;4425;50.872;4.712;2023-05-07T02:57:05;11.07;;;9.97;;
8777;SDS011;4425;50.872;4.712;2023-05-07T02:59:33;11.80;;;10.60;;
8777;SDS011;4425;50.872;4.712;2023-05-07T03:02:06;12.60;;;10.67;;
8777;SDS011;4425;50.872;4.712;2023-05-07T03:04:34;12.27;;;10.97;;
8777;SDS011;4425;50.872;4.712;2023-05-07T03:07:01;12.33;;;11.10;;
8777;SDS011;4425;50.872;4.712;2023-05-07T03:09:30;13.10;;;11.83;;
8777;SDS011;4425;50.872;4.712;2023-05-07T03:11:58;11.77;;;10.57;;
8777;SDS011;4425;50.872;4.712;2023-05-07T03:14:26;12.67;;;11.50;;
8777;SDS011;4425;50.872;4.712;2023-05-07T03:16:54;12.90;;;11.70;;
8777;SDS011;4425;50.872;4.712;2023-05-07T03:19:23;14.73;;;12.30;;
8777;SDS011;4425;50.872;4.712;2023-05-07T03:21:56;13.13;;;11.80;;
8777;SDS011;4425;50.872;4.712;2023-05-07T03:24:23;14.00;;;12.50;;
8777;SDS011;4425;50.872;4.712;2023-05-07T03:26:50;13.43;;;12.10;;
8777;SDS011;4425;50.872;4.712;2023-05-07T03:29:17;14.97;;;12.33;;
8777;SDS011;4425;50.872;4.712;2023-05-07T03:31:44;14.50;;;12.80;;
8777;SDS011;4425;50.872;4.712;2023-05-07T03:34:12;14.60;;;13.20;;
8777;SDS011;4425;50.872;4.712;2023-05-07T03:36:41;14.13;;;12.63;;
8777;SDS011;4425;50.872;4.712;2023-05-07T03:39:11;14.40;;;12.90;;
8777;SDS011;4425;50.872;4.712;2023-05-07T03:41:39;14.47;;;13.07;;
8777;SDS011;4425;50.872;4.712;2023-05-07T03:44:06;14.33;;;12.93;;
8777;SDS011;4425;50.872;4.712;2023-05-07T03:46:33;14.70;;;13.30;;
8777;SDS011;4425;50.872;4.712;2023-05-07T03:49:01;14.73;;;13.40;;
8777;SDS011;4425;50.872;4.712;2023-05-07T03:51:28;14.07;;;12.67;;
8777;SDS011;4425;50.872;4.712;2023-05-07T03:53:57;15.67;;;13.47;;
8777;SDS011;4425;50.872;4.712;2023-05-07T03:56:24;16.03;;;12.83;;
8777;SDS011;4425;50.872;4.712;2023-05-07T03:58:53;14.40;;;12.90;;
8777;SDS011;4425;50.872;4.712;2023-05-07T04:01:20;14.37;;;12.20;;
8777;SDS011;4425;50.872;4.712;2023-05-07T04:03:48;12.30;;;11.00;;
8777;SDS011;4425;50.872;4.712;2023-05-07T04:06:17;12.73;;;10.43;;
8777;SDS011;4425;50.872;4.712;2023-05-07T04:08:45;13.23;;;10.20;;
8777;SDS011;4425;50.872;4.712;2023-05-07T04:11:15;12.00;;;10.80;;
8777;SDS011;4425;50.872;4.712;2023-05-07T04:13:43;14.77;;;11.23;;
8777;SDS011;4425;50.872;4.712;2023-05-07T04:16:10;11.93;;;10.70;;
8777;SDS011;4425;50.872;4.712;2023-05-07T04:18:37;12.43;;;11.10;;
8777;SDS011;4425;50.872;4.712;2023-05-07T04:21:04;12.97;;;10.50;;
8777;SDS011;4425;50.872;4.712;2023-05-07T04:23:33;12.30;;;11.00;;
8777;SDS011;4425;50.872;4.712;2023-05-07T04:26:00;13.27;;;11.97;;
8777;SDS011;4425;50.872;4.712;2023-05-07T04:28:29;13.93;;;12.00;;
8777;SDS011;4425;50.872;4.712;2023-05-07T04:30:57;13.77;;;12.37;;
8777;SDS011;4425;50.872;4.712;2023-05-07T04:33:24;13.87;;;12.50;;
8777;SDS011;4425;50.872;4.712;2023-05-07T04:35:52;15.33;;;13.30;;
8777;SDS011;4425;50.872;4.712;2023-05-07T04:38:19;15.40;;;13.53;;
8777;SDS011;4425;50.872;4.712;2023-05-07T04:40:46;16.73;;;14.60;;
8777;SDS011;4425;50.872;4.712;2023-05-07T04:43:16;15.83;;;14.33;;
8777;SDS011;4425;50.872;4.712;2023-05-07T04:45:57;15.20;;;13.67;;
8777;SDS011;4425;50.872;4.712;2023-05-07T04:48:25;16.43;;;14.13;;
8777;SDS011;4425;50.872;4.712;2023-05-07T04:50:54;15.50;;;14.20;;
8777;SDS011;4425;50.872;4.712;2023-05-07T04:53:21;15.23;;;13.57;;
8777;SDS011;4425;50.872;4.712;2023-05-07T04:55:48;15.43;;;13.93;;
8777;SDS011;4425;50.872;4.712;2023-05-07T04:58:22;16.97;;;14.20;;
8777;SDS011;4425;50.872;4.712;2023-05-07T05:00:51;15.03;;;13.27;;
8777;SDS011;4425;50.872;4.712;2023-05-07T05:03:20;15.30;;;13.80;;
8777;SDS011;4425;50.872;4.712;2023-05-07T05:05:48;17.90;;;14.80;;
8777;SDS011;4425;50.872;4.712;2023-05-07T05:08:16;15.60;;;14.00;;
8777;SDS011;4425;50.872;4.712;2023-05-07T05:10:44;16.73;;;14.07;;
8777;SDS011;4425;50.872;4.712;2023-05-07T05:13:11;16.07;;;14.57;;
8777;SDS011;4425;50.872;4.712;2023-05-07T05:15:39;15.93;;;14.43;;
8777;SDS011;4425;50.872;4.712;2023-05-07T05:18:09;16.43;;;14.93;;
8777;SDS011;4425;50.872;4.712;2023-05-07T05:20:39;15.60;;;14.27;;
8777;SDS011;4425;50.872;4.712;2023-05-07T05:23:08;15.37;;;13.97;;
8777;SDS011;4425;50.872;4.712;2023-05-07T05:25:35;15.77;;;14.10;;
8777;SDS011;4425;50.872;4.712;2023-05-07T05:28:04;15.83;;;14.10;;
8777;SDS011;4425;50.872;4.712;2023-05-07T05:30:31;15.73;;;14.25;;
8777;SDS011;4425;50.872;4.712;2023-05-07T05:33:04;14.80;;;13.27;;
8777;SDS011;4425;50.872;4.712;2023-05-07T05:35:31;15.13;;;13.80;;
8777;SDS011;4425;50.872;4.712;2023-05-07T05:38:01;15.35;;;13.70;;
8777;SDS011;4425;50.872;4.712;2023-05-07T05:40:29;15.70;;;13.48;;
8777;SDS011;4425;50.872;4.712;2023-05-07T05:42:56;14.83;;;13.50;;
8777;SDS011;4425;50.872;4.712;2023-05-07T05:45:23;14.70;;;13.30;;
8777;SDS011;4425;50.872;4.712;2023-05-07T05:47:51;14.97;;;13.57;;
8777;SDS011;4425;50.872;4.712;2023-05-07T05:50:18;15.07;;;13.57;;
8777;SDS011;4425;50.872;4.712;2023-05-07T05:52:46;16.47;;;13.93;;
8777;SDS011;4425;50.872;4.712;2023-05-07T05:55:16;13.47;;;12.13;;
8777;SDS011;4425;50.872;4.712;2023-05-07T05:57:43;14.90;;;12.80;;
8777;SDS011;4425;50.872;4.712;2023-05-07T06:00:11;14.50;;;12.77;;
8777;SDS011;4425;50.872;4.712;2023-05-07T06:02:39;14.40;;;12.82;;
8777;SDS011;4425;50.872;4.712;2023-05-07T06:05:08;14.80;;;13.03;;
8777;SDS011;4425;50.872;4.712;2023-05-07T06:07:36;14.07;;;12.57;;
8777;SDS011;4425;50.872;4.712;2023-05-07T06:10:03;14.27;;;11.97;;
8777;SDS011;4425;50.872;4.712;2023-05-07T06:12:36;13.90;;;11.83;;
8777;SDS011;4425;50.872;4.712;2023-05-07T06:15:05;15.50;;;11.63;;
8777;SDS011;4425;50.872;4.712;2023-05-07T06:17:35;11.67;;;10.47;;
8777;SDS011;4425;50.872;4.712;2023-05-07T06:20:03;11.88;;;10.75;;
8777;SDS011;4425;50.872;4.712;2023-05-07T06:22:31;11.10;;;10.00;;
8777;SDS011;4425;50.872;4.712;2023-05-07T06:24:59;12.63;;;9.75;;
8777;SDS011;4425;50.872;4.712;2023-05-07T06:27:27;12.38;;;9.95;;
8777;SDS011;4425;50.872;4.712;2023-05-07T06:29:56;11.95;;;9.90;;
8777;SDS011;4425;50.872;4.712;2023-05-07T06:32:24;12.10;;;10.15;;
8777;SDS011;4425;50.872;4.712;2023-05-07T06:34:53;11.15;;;10.13;;
8777;SDS011;4425;50.872;4.712;2023-05-07T06:37:20;11.20;;;9.15;;
8777;SDS011;4425;50.872;4.712;2023-05-07T06:39:48;11.88;;;9.13;;
8777;SDS011;4425;50.872;4.712;2023-05-07T06:42:15;12.02;;;7.80;;
8777;SDS011;4425;50.872;4.712;2023-05-07T06:44:42;7.65;;;6.53;;
8777;SDS011;4425;50.872;4.712;2023-05-07T06:50:55;9.80;;;7.07;;
8777;SDS011;4425;50.872;4.712;2023-05-07T06:53:23;10.20;;;6.50;;
8777;SDS011;4425;50.872;4.712;2023-05-07T06:55:51;9.27;;;6.63;;
8777;SDS011;4425;50.872;4.712;2023-05-07T07:00:48;6.73;;;5.90;;
8777;SDS011;4425;50.872;4.712;2023-05-07T07:03:16;10.57;;;6.50;;
8777;SDS011;4425;50.872;4.712;2023-05-07T07:05:43;8.05;;;5.85;;
8777;SDS011;4425;50.872;4.712;2023-05-07T07:08:12;8.85;;;6.28;;
8777;SDS011;4425;50.872;4.712;2023-05-07T07:10:39;8.07;;;5.97;;
8777;SDS011;4425;50.872;4.712;2023-05-07T07:13:06;7.68;;;5.78;;
8777;SDS011;4425;50.872;4.712;2023-05-07T07:15:34;12.00;;;5.80;;
8777;SDS011;4425;50.872;4.712;2023-05-07T07:18:03;9.02;;;5.82;;
8777;SDS011;4425;50.872;4.712;2023-05-07T07:20:30;9.95;;;5.47;;
8777;SDS011;4425;50.872;4.712;2023-05-07T07:22:58;10.75;;;5.90;;
8777;SDS011;4425;50.872;4.712;2023-05-07T07:25:27;9.95;;;5.78;;
8777;SDS011;4425;50.872;4.712;2023-05-07T07:27:54;8.27;;;5.50;;
8777;SDS011;4425;50.872;4.712;2023-05-07T07:30:21;10.15;;;5.53;;
8777;SDS011;4425;50.872;4.712;2023-05-07T07:32:49;8.00;;;5.88;;
8777;SDS011;4425;50.872;4.712;2023-05-07T07:35:16;7.88;;;5.40;;
8777;SDS011;4425;50.872;4.712;2023-05-07T07:37:44;9.02;;;5.50;;
8777;SDS011;4425;50.872;4.712;2023-05-07T07:40:11;8.38;;;5.20;;
8777;SDS011;4425;50.872;4.712;2023-05-07T07:42:41;8.77;;;5.20;;
8777;SDS011;4425;50.872;4.712;2023-05-07T07:45:08;7.72;;;5.05;;
8777;SDS011;4425;50.872;4.712;2023-05-07T07:47:36;5.93;;;4.10;;
8777;SDS011;4425;50.872;4.712;2023-05-07T07:50:04;5.45;;;4.05;;
8777;SDS011;4425;50.872;4.712;2023-05-07T07:52:32;7.03;;;3.45;;
8777;SDS011;4425;50.872;4.712;2023-05-07T07:55:00;7.35;;;3.67;;
8777;SDS011;4425;50.872;4.712;2023-05-07T07:57:28;5.32;;;3.30;;
8777;SDS011;4425;50.872;4.712;2023-05-07T08:02:29;6.32;;;3.65;;
8777;SDS011;4425;50.872;4.712;2023-05-07T08:04:56;7.30;;;3.50;;
8777;SDS011;4425;50.872;4.712;2023-05-07T08:07:23;4.75;;;3.17;;
8777;SDS011;4425;50.872;4.712;2023-05-07T08:09:51;5.78;;;3.20;;
8777;SDS011;4425;50.872;4.712;2023-05-07T08:12:18;7.97;;;3.83;;
8777;SDS011;4425;50.872;4.712;2023-05-07T08:14:45;5.75;;;3.80;;
8777;SDS011;4425;50.872;4.712;2023-05-07T08:17:14;9.02;;;4.03;;
8777;SDS011;4425;50.872;4.712;2023-05-07T08:19:42;5.47;;;3.75;;
8777;SDS011;4425;50.872;4.712;2023-05-07T08:22:09;5.93;;;4.10;;
8777;SDS011;4425;50.872;4.712;2023-05-07T08:24:38;5.72;;;4.07;;
8777;SDS011;4425;50.872;4.712;2023-05-07T08:27:06;6.38;;;4.03;;
8777;SDS011;4425;50.872;4.712;2023-05-07T08:29:33;6.30;;;4.50;;
8777;SDS011;4425;50.872;4.712;2023-05-07T08:32:00;7.15;;;4.78;;
8777;SDS011;4425;50.872;4.712;2023-05-07T08:34:29;9.50;;;4.10;;
8777;SDS011;4425;50.872;4.712;2023-05-07T08:36:56;5.88;;;4.35;;
8777;SDS011;4425;50.872;4.712;2023-05-07T08:39:24;7.88;;;4.38;;
8777;SDS011;4425;50.872;4.712;2023-05-07T08:41:51;7.05;;;4.20;;
8777;SDS011;4425;50.872;4.712;2023-05-07T08:44:25;8.23;;;4.43;;
8777;SDS011;4425;50.872;4.712;2023-05-07T08:46:54;8.95;;;3.67;;
8777;SDS011;4425;50.872;4.712;2023-05-07T08:49:22;4.85;;;3.80;;
8777;SDS011;4425;50.872;4.712;2023-05-07T08:51:51;5.55;;;3.63;;
8777;SDS011;4425;50.872;4.712;2023-05-07T08:54:19;7.65;;;3.55;;
8777;SDS011;4425;50.872;4.712;2023-05-07T08:56:47;5.93;;;3.88;;
8777;SDS011;4425;50.872;4.712;2023-05-07T08:59:15;5.57;;;3.83;;
8777;SDS011;4425;50.872;4.712;2023-05-07T09:01:42;4.53;;;3.65;;
8777;SDS011;4425;50.872;4.712;2023-05-07T09:04:09;3.97;;;3.47;;
8777;SDS011;4425;50.872;4.712;2023-05-07T09:06:38;5.30;;;3.70;;
8777;SDS011;4425;50.872;4.712;2023-05-07T09:09:09;5.95;;;3.47;;
8777;SDS011;4425;50.872;4.712;2023-05-07T09:11:40;3.78;;;3.38;;
8777;SDS011;4425;50.872;4.712;2023-05-07T09:14:08;3.95;;;3.05;;
8777;SDS011;4425;50.872;4.712;2023-05-07T09:16:35;5.75;;;3.30;;
8777;SDS011;4425;50.872;4.712;2023-05-07T09:19:02;4.90;;;3.40;;
8777;SDS011;4425;50.872;4.712;2023-05-07T09:21:31;4.50;;;3.20;;
8777;SDS011;4425;50.872;4.712;2023-05-07T09:23:58;4.97;;;3.53;;
8777;SDS011;4425;50.872;4.712;2023-05-07T09:26:26;6.15;;;3.47;;
8777;SDS011;4425;50.872;4.712;2023-05-07T09:28:54;6.00;;;3.50;;
8777;SDS011;4425;50.872;4.712;2023-05-07T09:31:21;5.70;;;3.85;;
8777;SDS011;4425;50.872;4.712;2023-05-07T09:33:52;5.15;;;3.85;;
8777;SDS011;4425;50.872;4.712;2023-05-07T09:36:21;7.07;;;3.67;;
8777;SDS011;4425;50.872;4.712;2023-05-07T09:38:48;6.22;;;3.83;;
8777;SDS011;4425;50.872;4.712;2023-05-07T09:41:16;4.65;;;3.70;;
8777;SDS011;4425;50.872;4.712;2023-05-07T09:43:45;5.38;;;4.25;;
8777;SDS011;4425;50.872;4.712;2023-05-07T09:46:12;5.28;;;3.90;;
8777;SDS011;4425;50.872;4.712;2023-05-07T09:48:42;6.97;;;4.07;;
8777;SDS011;4425;50.872;4.712;2023-05-07T09:51:12;4.10;;;3.80;;
8777;SDS011;4425;50.872;4.712;2023-05-07T09:53:48;4.47;;;3.88;;
8777;SDS011;4425;50.872;4.712;2023-05-07T09:56:16;5.60;;;3.85;;
8777;SDS011;4425;50.872;4.712;2023-05-07T09:58:46;5.38;;;4.00;;
8777;SDS011;4425;50.872;4.712;2023-05-07T10:01:16;5.00;;;3.70;;
8777;SDS011;4425;50.872;4.712;2023-05-07T10:03:47;4.80;;;3.90;;
8777;SDS011;4425;50.872;4.712;2023-05-07T10:06:16;5.28;;;3.83;;
8777;SDS011;4425;50.872;4.712;2023-05-07T10:13:50;6.90;;;4.00;;
8777;SDS011;4425;50.872;4.712;2023-05-07T10:16:21;6.10;;;4.18;;
8777;SDS011;4425;50.872;4.712;2023-05-07T10:18:50;5.93;;;3.85;;
8777;SDS011;4425;50.872;4.712;2023-05-07T10:24:00;6.93;;;3.83;;
8777;SDS011;4425;50.872;4.712;2023-05-07T10:26:35;5.38;;;3.10;;
8777;SDS011;4425;50.872;4.712;2023-05-07T10:29:05;6.40;;;3.60;;
8777;SDS011;4425;50.872;4.712;2023-05-07T10:31:49;5.43;;;3.20;;
8777;SDS011;4425;50.872;4.712;2023-05-07T10:34:24;7.35;;;3.60;;
8777;SDS011;4425;50.872;4.712;2023-05-07T10:36:54;4.47;;;3.17;;
8777;SDS011;4425;50.872;4.712;2023-05-07T10:39:25;5.97;;;3.53;;
8777;SDS011;4425;50.872;4.712;2023-05-07T10:41:53;4.18;;;3.63;;
8777;SDS011;4425;50.872;4.712;2023-05-07T10:44:28;7.00;;;4.57;;
8777;SDS011;4425;50.872;4.712;2023-05-07T10:47:08;3.92;;;3.45;;
8777;SDS011;4425;50.872;4.712;2023-05-07T10:49:37;5.10;;;4.13;;
8777;SDS011;4425;50.872;4.712;2023-05-07T10:58:51;4.15;;;3.13;;
8777;SDS011;4425;50.872;4.712;2023-05-07T11:04:26;7.85;;;3.90;;
8777;SDS011;4425;50.872;4.712;2023-05-07T11:07:10;5.97;;;3.45;;
8777;SDS011;4425;50.872;4.712;2023-05-07T11:10:00;5.63;;;3.35;;
8777;SDS011;4425;50.872;4.712;2023-05-07T11:12:54;3.67;;;2.72;;
8777;SDS011;4425;50.872;4.712;2023-05-07T11:15:35;5.10;;;3.33;;
8777;SDS011;4425;50.872;4.712;2023-05-07T11:18:04;4.25;;;2.83;;
8777;SDS011;4425;50.872;4.712;2023-05-07T11:21:03;5.22;;;2.70;;
8777;SDS011;4425;50.872;4.712;2023-05-07T11:26:29;5.05;;;3.00;;
8777;SDS011;4425;50.872;4.712;2023-05-07T11:28:58;6.82;;;3.33;;
8777;SDS011;4425;50.872;4.712;2023-05-07T11:31:27;3.42;;;2.78;;
8777;SDS011;4425;50.872;4.712;2023-05-07T11:33:55;4.82;;;2.90;;
8777;SDS011;4425;50.872;4.712;2023-05-07T11:36:30;4.03;;;3.10;;
8777;SDS011;4425;50.872;4.712;2023-05-07T11:38:58;2.90;;;2.50;;
8777;SDS011;4425;50.872;4.712;2023-05-07T11:41:33;5.30;;;3.00;;
8777;SDS011;4425;50.872;4.712;2023-05-07T11:44:03;5.25;;;2.80;;
8777;SDS011;4425;50.872;4.712;2023-05-07T11:46:30;4.78;;;2.55;;
8777;SDS011;4425;50.872;4.712;2023-05-07T11:48:58;5.85;;;3.22;;
8777;SDS011;4425;50.872;4.712;2023-05-07T11:51:30;3.85;;;2.50;;
8777;SDS011;4425;50.872;4.712;2023-05-07T11:53:58;4.70;;;2.53;;
8777;SDS011;4425;50.872;4.712;2023-05-07T11:56:25;3.95;;;2.58;;
8777;SDS011;4425;50.872;4.712;2023-05-07T11:58:52;3.72;;;2.28;;
8777;SDS011;4425;50.872;4.712;2023-05-07T12:01:20;4.72;;;2.80;;
8777;SDS011;4425;50.872;4.712;2023-05-07T12:03:47;3.70;;;2.28;;
8777;SDS011;4425;50.872;4.712;2023-05-07T12:06:15;3.30;;;2.40;;
8777;SDS011;4425;50.872;4.712;2023-05-07T12:08:52;2.92;;;2.00;;
8777;SDS011;4425;50.872;4.712;2023-05-07T12:11:25;2.60;;;2.00;;
8777;SDS011;4425;50.872;4.712;2023-05-07T12:13:53;2.70;;;2.15;;
8777;SDS011;4425;50.872;4.712;2023-05-07T12:16:21;2.83;;;1.73;;
8777;SDS011;4425;50.872;4.712;2023-05-07T12:21:32;2.05;;;1.90;;
8777;SDS011;4425;50.872;4.712;2023-05-07T12:24:05;2.33;;;2.13;;
8777;SDS011;4425;50.872;4.712;2023-05-07T12:26:46;6.40;;;2.75;;
8777;SDS011;4425;50.872;4.712;2023-05-07T12:32:00;2.40;;;2.03;;
8777;SDS011;4425;50.872;4.712;2023-05-07T12:34:34;4.95;;;2.13;;
8777;SDS011;4425;50.872;4.712;2023-05-07T12:37:04;3.72;;;2.38;;
8777;SDS011;4425;50.872;4.712;2023-05-07T12:39:33;2.75;;;2.20;;
8777;SDS011;4425;50.872;4.712;2023-05-07T12:42:00;3.40;;;2.00;;
8777;SDS011;4425;50.872;4.712;2023-05-07T12:44:29;3.22;;;2.00;;
8777;SDS011;4425;50.872;4.712;2023-05-07T12:46:57;2.50;;;2.15;;
8777;SDS011;4425;50.872;4.712;2023-05-07T12:49:25;2.97;;;2.58;;
8777;SDS011;4425;50.872;4.712;2023-05-07T12:51:53;3.90;;;2.40;;
8777;SDS011;4425;50.872;4.712;2023-05-07T12:57:39;3.85;;;2.47;;
8777;SDS011;4425;50.872;4.712;2023-05-07T13:00:07;4.18;;;2.50;;
8777;SDS011;4425;50.872;4.712;2023-05-07T13:02:37;2.08;;;1.90;;
8777;SDS011;4425;50.872;4.712;2023-05-07T13:05:06;4.30;;;2.33;;
8777;SDS011;4425;50.872;4.712;2023-05-07T13:07:34;3.33;;;2.17;;
8777;SDS011;4425;50.872;4.712;2023-05-07T13:10:03;2.60;;;2.40;;
8777;SDS011;4425;50.872;4.712;2023-05-07T13:12:31;4.72;;;2.47;;
8777;SDS011;4425;50.872;4.712;2023-05-07T13:15:00;2.53;;;2.30;;
8777;SDS011;4425;50.872;4.712;2023-05-07T13:17:27;2.83;;;2.25;;
8777;SDS011;4425;50.872;4.712;2023-05-07T13:19:56;3.35;;;2.25;;
8777;SDS011;4425;50.872;4.712;2023-05-07T13:22:23;3.60;;;2.35;;
8777;SDS011;4425;50.872;4.712;2023-05-07T13:24:50;2.65;;;1.90;;
8777;SDS011;4425;50.872;4.712;2023-05-07T13:27:17;2.45;;;2.17;;
8777;SDS011;4425;50.872;4.712;2023-05-07T13:29:45;1.95;;;1.85;;
8777;SDS011;4425;50.872;4.712;2023-05-07T13:32:25;5.25;;;2.30;;
8777;SDS011;4425;50.872;4.712;2023-05-07T13:34:55;2.30;;;2.10;;
8777;SDS011;4425;50.872;4.712;2023-05-07T13:37:22;4.32;;;2.35;;
8777;SDS011;4425;50.872;4.712;2023-05-07T13:39:50;2.30;;;2.10;;
8777;SDS011;4425;50.872;4.712;2023-05-07T13:44:48;2.40;;;2.20;;
8777;SDS011;4425;50.872;4.712;2023-05-07T13:47:19;2.47;;;2.28;;
8777;SDS011;4425;50.872;4.712;2023-05-07T13:49:46;3.05;;;2.60;;
8777;SDS011;4425;50.872;4.712;2023-05-07T13:52:15;3.00;;;2.53;;
8777;SDS011;4425;50.872;4.712;2023-05-07T13:54:42;5.13;;;2.42;;
8777;SDS011;4425;50.872;4.712;2023-05-07T13:57:10;3.40;;;2.60;;
8777;SDS011;4425;50.872;4.712;2023-05-07T13:59:37;2.67;;;2.40;;
8777;SDS011;4425;50.872;4.712;2023-05-07T14:02:05;3.88;;;2.20;;
8777;SDS011;4425;50.872;4.712;2023-05-07T14:04:35;2.40;;;2.30;;
8777;SDS011;4425;50.872;4.712;2023-05-07T14:07:03;2.45;;;2.25;;
8777;SDS011;4425;50.872;4.712;2023-05-07T14:09:31;2.78;;;2.40;;
8777;SDS011;4425;50.872;4.712;2023-05-07T14:11:59;3.08;;;2.38;;
8777;SDS011;4425;50.872;4.712;2023-05-07T14:14:26;3.35;;;2.53;;
8777;SDS011;4425;50.872;4.712;2023-05-07T14:16:53;2.97;;;2.55;;
8777;SDS011;4425;50.872;4.712;2023-05-07T14:19:22;2.20;;;2.10;;
8777;SDS011;4425;50.872;4.712;2023-05-07T14:21:54;3.92;;;2.78;;
8777;SDS011;4425;50.872;4.712;2023-05-07T14:24:21;5.47;;;2.80;;
8777;SDS011;4425;50.872;4.712;2023-05-07T14:26:51;3.28;;;2.85;;
8777;SDS011;4425;50.872;4.712;2023-05-07T14:29:19;3.63;;;2.55;;
8777;SDS011;4425;50.872;4.712;2023-05-07T14:31:51;2.78;;;2.60;;
8777;SDS011;4425;50.872;4.712;2023-05-07T14:34:18;2.92;;;2.70;;
8777;SDS011;4425;50.872;4.712;2023-05-07T14:36:45;2.80;;;2.58;;
8777;SDS011;4425;50.872;4.712;2023-05-07T14:39:15;4.25;;;2.92;;
8777;SDS011;4425;50.872;4.712;2023-05-07T14:41:43;3.65;;;2.63;;
8777;SDS011;4425;50.872;4.712;2023-05-07T14:44:10;3.00;;;2.80;;
8777;SDS011;4425;50.872;4.712;2023-05-07T14:46:37;2.50;;;2.30;;
8777;SDS011;4425;50.872;4.712;2023-05-07T14:49:04;2.78;;;2.58;;
8777;SDS011;4425;50.872;4.712;2023-05-07T14:51:33;3.17;;;2.95;;
8777;SDS011;4425;50.872;4.712;2023-05-07T14:54:00;2.70;;;2.55;;
8777;SDS011;4425;50.872;4.712;2023-05-07T14:56:30;4.07;;;2.92;;
8777;SDS011;4425;50.872;4.712;2023-05-07T15:02:12;2.40;;;2.20;;
8777;SDS011;4425;50.872;4.712;2023-05-07T15:04:39;3.38;;;2.70;;
8777;SDS011;4425;50.872;4.712;2023-05-07T15:07:10;3.20;;;2.90;;
8777;SDS011;4425;50.872;4.712;2023-05-07T15:09:40;4.50;;;2.50;;
8777;SDS011;4425;50.872;4.712;2023-05-07T15:12:08;4.82;;;2.92;;
8777;SDS011;4425;50.872;4.712;2023-05-07T15:17:06;3.55;;;2.90;;
8777;SDS011;4425;50.872;4.712;2023-05-07T15:19:33;3.00;;;2.78;;
8777;SDS011;4425;50.872;4.712;2023-05-07T15:22:00;5.22;;;2.95;;
8777;SDS011;4425;50.872;4.712;2023-05-07T15:24:29;3.10;;;2.80;;
8777;SDS011;4425;50.872;4.712;2023-05-07T15:26:58;4.57;;;3.13;;
8777;SDS011;4425;50.872;4.712;2023-05-07T15:29:27;4.35;;;2.90;;
8777;SDS011;4425;50.872;4.712;2023-05-07T15:31:55;9.25;;;3.47;;
8777;SDS011;4425;50.872;4.712;2023-05-07T15:34:23;6.88;;;3.08;;
8777;SDS011;4425;50.872;4.712;2023-05-07T15:36:50;3.28;;;3.08;;
8777;SDS011;4425;50.872;4.712;2023-05-07T15:39:18;4.28;;;3.10;;
8777;SDS011;4425;50.872;4.712;2023-05-07T15:41:46;6.75;;;3.50;;
8777;SDS011;4425;50.872;4.712;2023-05-07T15:44:14;4.47;;;3.10;;
8777;SDS011;4425;50.872;4.712;2023-05-07T15:46:46;4.75;;;3.40;;
8777;SDS011;4425;50.872;4.712;2023-05-07T15:49:14;3.25;;;3.00;;
8777;SDS011;4425;50.872;4.712;2023-05-07T15:51:42;4.43;;;3.28;;
8777;SDS011;4425;50.872;4.712;2023-05-07T15:54:10;5.60;;;3.92;;
8777;SDS011;4425;50.872;4.712;2023-05-07T15:56:41;8.10;;;3.47;;
8777;SDS011;4425;50.872;4.712;2023-05-07T15:59:09;9.82;;;3.25;;
8777;SDS011;4425;50.872;4.712;2023-05-07T16:01:37;3.90;;;2.90;;
8777;SDS011;4425;50.872;4.712;2023-05-07T16:04:08;2.85;;;2.67;;
8777;SDS011;4425;50.872;4.712;2023-05-07T16:06:35;3.58;;;3.28;;
8777;SDS011;4425;50.872;4.712;2023-05-07T16:09:03;3.70;;;3.10;;
8777;SDS011;4425;50.872;4.712;2023-05-07T16:11:31;3.45;;;3.25;;
8777;SDS011;4425;50.872;4.712;2023-05-07T16:13:58;4.05;;;3.05;;
8777;SDS011;4425;50.872;4.712;2023-05-07T16:16:26;8.13;;;6.30;;